Aeroporto :
LOGIN :

Iscrizione | Disclaimer

   EN    FR    IT 

 










Sommario :    VFR   VFR Marginale   IFR   IFR Intensivo   IFR Molto Intensivo
Visibilità : 
Base nubi : 
>= 8 km
>= 3000ft
5 / 8 km
1000 / 3000 ft
1500m / 5 km
500 / 1000 ft
800 / 1500m
200 / 500 ft
< 800m
< 200 ft
Simboli :   Temporali  Nebbia  Neve Forte  Precipitazioni Forti  Vento > 20 kt
SIGMETs :   Varie  Temporali  Ghiacco  Turbolenza  Onda orograficha  Ceneri Vulcaniche






- Altitudine del aeroporto : 220 ft
- Codice IATA : CWL


EGFF - Cardiff Rhoose

ULTIMO METAR :
  • 072050Z AUTO 19007KT 9999 BKN015 10/08 Q1007

METARs OBSOLETI :
  • 072020Z AUTO 22008KT 9999 BKN016 10/08 Q1008
  • 071950Z AUTO 24009KT 9999 BKN017 OVC025 10/08 Q1009
  • 071920Z AUTO 24008KT 9999 SCT017 BKN021 10/08 Q1010
  • 071850Z AUTO 22006KT 9999 FEW017 09/08 Q1010
  • 071820Z AUTO 21005KT 170V240 9999 BKN016 09/08 Q1010

TAF TAF EGFF
Valido dal 07 a 18 ore il 08 a 18 ore UTC


071704Z 0718/0818 24007KT 9999 BKN018
TEMPO 0718/0724 BKN012
BECMG 0722/0801 22017KT
TEMPO 0722/0803 22020G30KT 6000 RA
PROB30
TEMPO 0723/0802 3000 +RA BKN009
BECMG 0801/0804 26020KT
TEMPO 0801/0806 26023G33KT
PROB30
TEMPO 0801/0818 26030G43KT
PROB40
TEMPO 0802/0804 3000 BR BKN004
PROB30
TEMPO 0809/0818 2500 +SHRA SHGS BKN012CB
ATIS : +44 1446 729 319



MetMap, La meteo Aeronautica in un colpo d'occhio ! - Copyright ORBIFLY Dicembre 2007 - Disclaimer

ORBIFLY MET'MAP TEAM :

Programmazione e sviluppo : Alexandra Zaïnal
Concezione : Baudouin d'Aumeries
Aiuto per la programmazione : Marc-Olivier Méhu
Supporto tecnico e logistico : Manuel Goepfert
Aiuto per la traduzione : Arnaldo La Scala

Contatto : metmap@orbifly.com




FONTI E CREDITI :

   NOAA